Terminal Aerodrome Forecast
Issued by NWS

Home | Current Version | Previous Version | Text Only | Print | Product List | Glossary On
Versions: 1 2 3 4 5 6 7 8 9 10 11 12 13 14 15 16
000
FTUS42 KTAE 102300
TAFDHN
TAF
KDHN 102324Z 1100/1124 22009KT P6SM VCSH BKN040 BKN150
     FM110300 25003KT P6SM SCT100 OVC250
     FM111400 32005KT P6SM SCT030 SCT100
     FM112000 32008KT P6SM SCT040 SCT150=

USA.gov is the U.S. government's official web portal to all federal, state and local government web resources and services.